Time;durP1;ratioP1;P1;durP2;ratioP2;P2;SDS_P1;SDS_P2;PMS_P1;PMS_P2;Temp;Humidity;BMP_temperature;BMP_pressure;BME280_temperature;BME280_humidity;BME280_pressure;Samples;Min_cycle;Max_cycle;Signal;HPM_P1;HPM_P2
2023/11/02 00:02:29;;;;;;;1.60;1.50;;;;;;;4.14;100.00;99957.91;5029403;28;20050;-67
2023/11/02 00:05:28;;;;;;;1.40;1.30;;;;;;;4.08;100.00;99957.63;5019384;28;20045;-66
2023/11/02 00:07:53;;;;;;;;;;;;;;;3.98;100.00;99962.91;5022647;28;20038;-69
2023/11/02 00:10:19;;;;;;;1.63;1.47;;;;;;;3.81;100.00;99943.38;5015420;28;19917;-66
2023/11/02 00:12:44;;;;;;;2.13;1.83;;;;;;;3.79;100.00;99947.13;5014573;28;20044;-68
2023/11/02 00:15:12;;;;;;;1.70;1.60;;;;;;;3.69;100.00;99949.72;5015286;28;20413;-68
2023/11/02 00:17:38;;;;;;;1.50;1.40;;;;;;;3.69;100.00;99947.09;5015023;28;20029;-66
2023/11/02 00:20:07;;;;;;;1.83;1.30;;;;;;;3.58;100.00;99931.44;5014937;28;20268;-66
2023/11/02 00:22:42;;;;;;;2.00;1.60;;;;;;;3.66;100.00;99950.00;5014658;28;20273;-68
2023/11/02 00:25:09;;;;;;;1.83;1.50;;;;;;;3.57;100.00;99935.03;5015426;28;20800;-67
2023/11/02 00:27:36;;;;;;;2.20;1.77;;;;;;;3.64;100.00;99962.47;5017662;28;20284;-68
2023/11/02 00:30:03;;;;;;;1.60;1.50;;;;;;;3.28;100.00;99909.53;5020920;28;20276;-69
2023/11/02 00:32:32;;;;;;;2.77;2.10;;;;;;;3.70;100.00;99961.94;5020969;28;20284;-68
2023/11/02 00:34:57;;;;;;;1.77;1.67;;;;;;;3.81;100.00;99948.63;5019995;28;20280;-67
2023/11/02 00:37:23;;;;;;;1.97;1.77;;;;;;;3.95;100.00;99956.09;5015173;28;20089;-65
2023/11/02 00:39:48;;;;;;;3.53;1.60;;;;;;;3.95;100.00;99942.09;5014884;28;20029;-68
2023/11/02 00:42:15;;;;;;;3.03;1.90;;;;;;;4.08;100.00;99955.84;5014338;28;20045;-67
2023/11/02 00:44:41;;;;;;;1.97;1.83;;;;;;;4.23;100.00;99972.03;5013649;28;20052;-67
2023/11/02 00:47:07;;;;;;;4.33;2.13;;;;;;;4.27;100.00;99966.31;5014154;28;20273;-67
2023/11/02 00:49:35;;;;;;;2.03;1.93;;;;;;;4.20;100.00;99932.78;5013439;28;20038;-68
2023/11/02 00:52:04;;;;;;;2.13;2.03;;;;;;;4.32;100.00;99971.16;5013996;28;20050;-67
2023/11/02 00:54:44;;;;;;;1.77;1.67;;;;;;;4.32;100.00;99964.09;5013615;28;20398;-67
2023/11/02 00:57:11;;;;;;;1.87;1.70;;;;;;;4.22;100.00;99958.00;5013808;28;20524;-68
2023/11/02 00:59:40;;;;;;;2.00;1.90;;;;;;;4.24;100.00;99958.69;4996473;28;20279;-68
2023/11/02 01:02:07;;;;;;;1.93;1.73;;;;;;;4.28;100.00;99967.97;5013439;28;20399;-68
2023/11/02 01:04:33;;;;;;;1.70;1.60;;;;;;;4.24;100.00;99976.31;5013746;28;20038;-66
2023/11/02 01:06:59;;;;;;;1.80;1.70;;;;;;;4.19;100.00;99960.09;5014054;28;20323;-67
2023/11/02 01:09:45;;;;;;;1.63;1.40;;;;;;;4.20;100.00;99964.41;5014874;28;20030;-67
2023/11/02 01:12:16;;;;;;;1.80;1.70;;;;;;;4.18;100.00;99955.81;5013619;28;20030;-67
2023/11/02 01:14:49;;;;;;;1.37;1.27;;;;;;;4.13;100.00;99943.06;5012097;28;20269;-67
2023/11/02 01:17:42;;;;;;;1.30;1.20;;;;;;;4.14;100.00;99943.88;5012962;28;20405;-67
2023/11/02 01:20:10;;;;;;;1.40;1.30;;;;;;;4.27;100.00;99970.75;5013286;28;20272;-66
2023/11/02 01:22:52;;;;;;;1.30;1.20;;;;;;;4.19;100.00;99960.09;5013239;28;20284;-68
2023/11/02 01:25:18;;;;;;;1.50;1.40;;;;;;;4.10;100.00;99943.34;5012955;28;20300;-67
2023/11/02 01:27:46;;;;;;;2.00;1.90;;;;;;;4.19;100.00;99946.94;5013466;28;20137;-66
2023/11/02 01:30:40;;;;;;;2.17;2.00;;;;;;;4.24;100.00;99963.16;5013016;28;20050;-67
2023/11/02 01:33:38;;;;;;;2.10;1.77;;;;;;;4.19;100.00;99958.31;5013170;28;20715;-65
2023/11/02 01:36:07;;;;;;;2.03;1.83;;;;;;;4.01;100.00;99942.38;5011991;28;20288;-67
2023/11/02 01:38:33;;;;;;;;;;;;;;;4.08;100.00;99965.53;5014385;28;20280;-66
2023/11/02 01:41:08;;;;;;;1.80;1.60;;;;;;;3.86;100.00;99945.59;5013053;28;19924;-67
2023/11/02 01:43:42;;;;;;;2.40;2.20;;;;;;;3.86;100.00;99946.41;5012741;28;20060;-66
2023/11/02 01:46:59;;;;;;;1.77;1.67;;;;;;;3.96;100.00;99965.66;5012441;28;20272;-67
2023/11/02 01:49:47;;;;;;;2.90;2.10;;;;;;;3.93;100.00;99958.03;4953679;29;20707;-66
2023/11/02 01:52:33;;;;;;;2.20;2.00;;;;;;;3.87;100.00;99953.34;4952289;29;20349;-66
2023/11/02 01:55:23;;;;;;;3.53;3.23;;;;;;;3.83;100.00;99951.97;5002776;28;20050;-67
2023/11/02 01:58:05;;;;;;;1.93;1.73;;;;;;;3.80;100.00;99962.78;5011374;28;20348;-66
2023/11/02 02:00:47;;;;;;;2.63;2.13;;;;;;;3.78;100.00;99956.81;5012665;28;20784;-68
2023/11/02 02:03:28;;;;;;;2.47;2.13;;;;;;;3.39;100.00;99893.59;5011116;28;20284;-66
2023/11/02 02:06:08;;;;;;;2.83;2.40;;;;;;;3.74;100.00;99960.69;5011996;28;20261;-66
2023/11/02 02:09:25;;;;;;;3.30;1.87;;;;;;;3.82;100.00;99957.38;5012525;28;20280;-66
2023/11/02 02:12:09;;;;;;;2.30;1.90;;;;;;;3.86;100.00;99956.94;4978821;28;20319;-66
2023/11/02 02:15:10;;;;;;;1.67;1.47;;;;;;;3.90;100.00;99962.78;5012509;28;20261;-67
2023/11/02 02:17:51;;;;;;;1.80;1.70;;;;;;;3.43;100.00;99884.47;5011961;28;21001;-67
2023/11/02 02:20:42;;;;;;;3.17;1.70;;;;;;;3.95;100.00;99960.53;5011214;28;20758;-68
2023/11/02 02:23:29;;;;;;;1.63;1.53;;;;;;;3.82;100.00;99958.19;5011437;28;20299;-69
2023/11/02 02:26:29;;;;;;;1.90;1.73;;;;;;;3.69;100.00;99950.56;5010585;28;20285;-67
2023/11/02 02:29:31;;;;;;;2.20;2.00;;;;;;;3.56;100.00;99962.34;5011888;28;20272;-67
2023/11/02 02:32:25;;;;;;;1.70;1.30;;;;;;;3.43;100.00;99963.41;5011714;28;20833;-66
2023/11/02 02:35:12;;;;;;;2.67;1.63;;;;;;;3.19;100.00;99936.66;5012252;28;20276;-67
2023/11/02 02:37:52;;;;;;;2.20;1.83;;;;;;;3.28;100.00;99964.78;5011710;28;20280;-67
2023/11/02 02:40:25;;;;;;;8.77;2.37;;;;;;;3.15;100.00;99930.00;5011544;28;20745;-66
2023/11/02 02:42:52;;;;;;;1.80;1.70;;;;;;;3.22;100.00;99957.44;5010048;28;20315;-70
2023/11/02 02:45:18;;;;;;;2.00;1.80;;;;;;;2.91;100.00;99916.38;5010282;28;20672;-66
2023/11/02 02:47:46;;;;;;;1.73;1.63;;;;;;;3.11;100.00;99965.44;5011959;28;20264;-67
2023/11/02 02:50:13;;;;;;;2.40;2.20;;;;;;;2.72;100.00;99902.19;5012034;28;20046;-67
2023/11/02 02:52:41;;;;;;;3.20;1.80;;;;;;;3.09;100.00;99977.88;5011678;28;20261;-68
2023/11/02 02:55:11;;;;;;;3.63;1.70;;;;;;;3.05;100.00;99971.22;5011500;28;20802;-63
2023/11/02 02:57:45;;;;;;;2.50;1.97;;;;;;;3.12;100.00;99967.09;5011661;28;20356;-67
2023/11/02 03:00:14;;;;;;;1.80;1.70;;;;;;;3.09;100.00;99980.53;5011899;28;20364;-66
2023/11/02 03:02:41;;;;;;;2.00;1.80;;;;;;;2.99;100.00;99966.50;5010912;28;20308;-67
2023/11/02 03:05:10;;;;;;;3.17;2.90;;;;;;;3.03;100.00;99968.75;5012080;28;20293;-66
2023/11/02 03:07:36;;;;;;;1.95;1.85;;;;;;;2.94;100.00;99963.47;5013314;28;20699;-66
2023/11/02 03:10:06;;;;;;;7.53;3.37;;;;;;;2.93;100.00;99965.25;5016284;28;20053;-67
2023/11/02 03:12:34;;;;;;;2.00;1.57;;;;;;;2.95;100.00;99973.00;5016085;28;20303;-67
2023/11/02 03:15:07;;;;;;;1.75;1.65;;;;;;;2.89;100.00;99961.22;5015372;28;20276;-68
2023/11/02 03:18:08;;;;;;;4.23;1.70;;;;;;;2.69;100.00;99938.44;5015422;28;20048;-67
2023/11/02 03:20:34;;;;;;;1.50;1.23;;;;;;;2.71;100.00;99958.38;5014899;28;20327;-66
2023/11/02 03:23:06;;;;;;;1.80;1.70;;;;;;;2.53;100.00;99924.94;5014992;28;20292;-66
2023/11/02 03:25:47;;;;;;;3.43;2.03;;;;;;;2.69;100.00;99975.25;5014888;28;20046;-69
2023/11/02 03:28:54;;;;;;;1.97;1.80;;;;;;;2.67;100.00;99962.25;5014805;28;20376;-66
2023/11/02 03:31:43;;;;;;;2.13;1.83;;;;;;;2.72;100.00;99978.44;4953978;29;20263;-67
2023/11/02 03:34:12;;;;;;;2.73;2.53;;;;;;;2.69;100.00;99973.47;4954099;29;20398;-66
2023/11/02 03:37:12;;;;;;;1.85;1.67;;;;;;;2.61;100.00;99956.69;4994118;28;20323;-68
2023/11/02 03:39:54;;;;;;;4.00;2.03;;;;;;;2.68;100.00;99953.38;5014655;28;20033;-67
2023/11/02 03:42:36;;;;;;;3.47;2.30;;;;;;;2.87;100.00;99978.06;5014735;28;20628;-68
2023/11/02 03:45:01;;;;;;;2.63;1.83;;;;;;;2.97;100.00;99978.97;5014909;28;20802;-67
2023/11/02 03:48:00;;;;;;;1.73;1.63;;;;;;;3.04;100.00;99974.84;5014782;28;20366;-66
2023/11/02 03:50:44;;;;;;;1.90;1.70;;;;;;;3.08;100.00;99982.31;4993212;28;20038;-67
2023/11/02 03:53:37;;;;;;;2.40;2.20;;;;;;;3.11;100.00;99975.97;5015240;28;20252;-67
2023/11/02 03:56:39;;;;;;;2.17;1.77;;;;;;;3.14;100.00;99965.16;5007993;28;20292;-68
2023/11/02 03:59:10;;;;;;;3.77;1.87;;;;;;;3.16;100.00;99973.75;5014580;28;20268;-66
2023/11/02 04:02:01;;;;;;;2.33;1.83;;;;;;;3.30;100.00;99981.28;5014228;28;20704;-67
2023/11/02 04:04:45;;;;;;;3.23;1.83;;;;;;;3.28;100.00;99967.44;5015289;28;20299;-67
2023/11/02 04:07:16;;;;;;;1.97;1.70;;;;;;;3.38;100.00;99983.22;5013491;28;20277;-68
2023/11/02 04:09:52;;;;;;;2.00;1.70;;;;;;;3.26;100.00;99979.06;5015455;28;20363;-67
2023/11/02 04:12:42;;;;;;;2.50;2.30;;;;;;;3.18;100.00;99961.31;5015471;28;20269;-66
2023/11/02 04:15:09;;;;;;;2.30;2.10;;;;;;;3.34;100.00;99980.03;5018528;28;20320;-66
2023/11/02 04:17:36;;;;;;;2.83;2.10;;;;;;;3.22;100.00;99977.66;5017635;28;20360;-66
2023/11/02 04:20:03;;;;;;;2.23;2.10;;;;;;;3.26;100.00;99979.88;5015727;28;20288;-66
2023/11/02 04:22:29;;;;;;;2.42;2.22;;;;;;;3.18;100.00;99978.88;5013464;28;20288;-68
2023/11/02 04:24:55;;;;;;;4.00;2.37;;;;;;;3.19;100.00;99984.03;5012428;28;20049;-68
2023/11/02 04:27:21;;;;;;;2.83;2.13;;;;;;;3.11;100.00;99981.22;5012754;28;20065;-69
2023/11/02 04:29:46;;;;;;;2.23;1.70;;;;;;;3.05;100.00;99973.88;5013903;28;20030;-68
2023/11/02 04:32:12;;;;;;;2.30;1.97;;;;;;;3.22;100.00;99993.47;5014233;28;20073;-65
2023/11/02 04:34:39;;;;;;;2.43;1.97;;;;;;;3.31;100.00;99992.63;5013493;28;20045;-66
2023/11/02 04:37:15;;;;;;;4.47;3.10;;;;;;;3.25;100.00;99967.69;5013662;28;20045;-68
2023/11/02 04:39:44;;;;;;;2.57;2.23;;;;;;;3.41;100.00;99990.84;5013993;28;20644;-67
2023/11/02 04:42:11;;;;;;;2.10;1.90;;;;;;;3.38;100.00;99999.03;5014115;28;20269;-66
2023/11/02 04:44:37;;;;;;;2.27;2.00;;;;;;;3.37;100.00;99985.03;5022590;28;20335;-67
2023/11/02 04:47:03;;;;;;;1.83;1.70;;;;;;;3.25;100.00;99966.88;5016558;28;20278;-66
2023/11/02 04:49:29;;;;;;;2.47;1.30;;;;;;;3.45;100.00;100010.66;5015401;28;20128;-66
2023/11/02 04:52:02;;;;;;;2.00;1.90;;;;;;;3.37;100.00;100002.63;5013822;28;20312;-67
2023/11/02 04:54:31;;;;;;;1.80;1.60;;;;;;;3.35;100.00;99999.28;5022937;28;20045;-66
2023/11/02 04:57:01;;;;;;;2.27;2.07;;;;;;;3.26;100.00;99985.16;5029731;28;20265;-68
2023/11/02 04:59:28;;;;;;;1.83;1.63;;;;;;;3.33;100.00;100011.75;5023620;28;20265;-66
2023/11/02 05:01:57;;;;;;;2.10;1.70;;;;;;;3.03;100.00;99973.16;5015401;28;20273;-67
2023/11/02 05:04:23;;;;;;;1.73;1.60;;;;;;;3.13;100.00;99999.50;5012696;28;20391;-67
2023/11/02 05:06:48;;;;;;;3.87;2.00;;;;;;;2.98;100.00;99989.34;5013025;28;20129;-66
2023/11/02 05:09:14;;;;;;;1.80;1.70;;;;;;;2.90;100.00;100002.34;5013210;28;20120;-68
2023/11/02 05:11:39;;;;;;;3.53;1.90;;;;;;;2.82;100.00;99996.06;5014955;28;20588;-65
2023/11/02 05:14:05;;;;;;;2.27;1.60;;;;;;;2.82;100.00;99996.88;5012581;28;20408;-68
2023/11/02 05:16:30;;;;;;;1.80;1.70;;;;;;;2.87;100.00;100021.00;5013165;28;20038;-67
2023/11/02 05:18:56;;;;;;;3.63;1.70;;;;;;;2.89;100.00;100024.34;5013072;28;20084;-67
2023/11/02 05:21:21;;;;;;;1.87;1.77;;;;;;;2.92;100.00;100018.00;5013368;28;20061;-67
2023/11/02 05:23:47;;;;;;;2.53;1.87;;;;;;;2.80;100.00;99996.19;5013231;28;20045;-67
2023/11/02 05:26:15;;;;;;;3.77;1.80;;;;;;;2.76;100.00;99994.78;5011771;28;20034;-67
2023/11/02 05:28:41;;;;;;;2.47;1.55;;;;;;;2.90;100.00;100009.41;5012953;28;20034;-67
2023/11/02 05:31:06;;;;;;;2.43;1.70;;;;;;;3.00;100.00;100031.31;5011259;28;20048;-67
2023/11/02 05:33:32;;;;;;;2.57;1.60;;;;;;;2.82;100.00;99996.88;5012183;28;20461;-68
2023/11/02 05:35:58;;;;;;;2.17;1.97;;;;;;;3.02;100.00;100021.47;5012868;28;20425;-68
2023/11/02 05:38:23;;;;;;;2.20;2.00;;;;;;;3.00;100.00;100010.25;5012510;28;20265;-66
2023/11/02 05:40:49;;;;;;;2.33;1.70;;;;;;;2.99;100.00;100013.84;5012872;28;20045;-66
2023/11/02 05:43:15;;;;;;;2.13;1.90;;;;;;;3.03;100.00;100016.09;5012321;28;20038;-67
2023/11/02 05:45:41;;;;;;;2.17;2.03;;;;;;;3.11;100.00;100015.41;5012264;28;20064;-67
2023/11/02 05:48:06;;;;;;;2.10;2.00;;;;;;;3.04;100.00;100009.03;5011990;28;20525;-66
2023/11/02 05:50:32;;;;;;;1.80;1.60;;;;;;;3.06;100.00;100002.66;5012190;28;20300;-66
2023/11/02 05:52:58;;;;;;;2.77;1.60;;;;;;;3.09;100.00;100009.47;5012075;28;20099;-68
2023/11/02 05:55:23;;;;;;;3.10;2.33;;;;;;;3.18;100.00;100003.41;5011887;28;20069;-67
2023/11/02 05:57:49;;;;;;;2.60;2.10;;;;;;;3.28;100.00;100020.06;5010578;28;20038;-67
2023/11/02 06:00:16;;;;;;;5.67;1.87;;;;;;;3.32;100.00;100023.25;5011594;28;20450;-67
2023/11/02 06:02:42;;;;;;;2.90;1.97;;;;;;;3.35;100.00;100023.81;5010141;28;20268;-69
2023/11/02 06:05:08;;;;;;;3.87;3.43;;;;;;;3.26;100.00;100011.47;5011678;28;20292;-66
2023/11/02 06:07:36;;;;;;;3.67;2.53;;;;;;;2.93;100.00;99988.09;5011706;28;20300;-68
2023/11/02 06:10:03;;;;;;;2.10;1.57;;;;;;;2.98;100.00;99996.41;5011659;28;20281;-67
2023/11/02 06:12:31;;;;;;;1.77;1.67;;;;;;;2.80;100.00;99970.72;5011084;28;20279;-67
2023/11/02 06:14:56;;;;;;;3.80;3.20;;;;;;;3.02;100.00;100003.06;5011665;28;20269;-67
2023/11/02 06:17:23;;;;;;;2.07;1.43;;;;;;;3.08;100.00;100013.06;5011463;28;20061;-68
2023/11/02 06:19:49;;;;;;;1.77;1.53;;;;;;;3.04;100.00;100003.78;5011713;28;20034;-67
2023/11/02 06:22:14;;;;;;;3.80;2.60;;;;;;;3.24;100.00;100028.34;5011569;28;20280;-68
2023/11/02 06:24:42;;;;;;;2.80;2.00;;;;;;;3.13;100.00;100010.03;5010523;28;20045;-67
2023/11/02 06:27:08;;;;;;;1.83;1.73;;;;;;;3.28;100.00;100029.75;5011726;28;20061;-68
2023/11/02 06:29:34;;;;;;;4.20;1.77;;;;;;;3.27;100.00;100026.28;5010547;28;20284;-68
2023/11/02 06:32:00;;;;;;;3.60;2.20;;;;;;;3.25;100.00;100014.22;5011748;28;20269;-69
2023/11/02 06:34:25;;;;;;;2.00;1.90;;;;;;;3.28;100.00;100013.97;4994273;28;20096;-70
2023/11/02 06:36:51;;;;;;;3.73;1.90;;;;;;;3.25;100.00;100001.06;5019200;28;20045;-68
2023/11/02 06:39:20;;;;;;;4.07;2.20;;;;;;;3.36;100.00;100011.47;5031301;28;20037;-67
2023/11/02 06:41:47;;;;;;;1.63;1.43;;;;;;;3.14;100.00;99964.31;5031447;28;20457;-66
2023/11/02 06:44:12;;;;;;;7.10;2.10;;;;;;;3.52;100.00;100013.63;5033829;28;20390;-67
2023/11/02 06:46:38;;;;;;;2.60;1.50;;;;;;;3.49;100.00;99993.66;5035371;28;20280;-67
2023/11/02 06:49:03;;;;;;;4.13;1.70;;;;;;;3.59;100.00;100009.47;5035320;28;20041;-66
2023/11/02 06:51:30;;;;;;;2.13;1.77;;;;;;;3.67;100.00;100046.47;5035071;28;20068;-66
2023/11/02 06:53:56;;;;;;;1.30;1.13;;;;;;;3.55;100.00;100024.69;5033917;28;20037;-67
2023/11/02 06:56:25;;;;;;;4.33;1.50;;;;;;;3.68;100.00;100038.44;5034881;28;20263;-67
2023/11/02 06:58:51;;;;;;;1.67;1.53;;;;;;;3.60;100.00;100042.72;5034758;28;20064;-67
2023/11/02 07:01:18;;;;;;;1.80;1.70;;;;;;;3.51;100.00;100025.94;5033502;28;20367;-68
2023/11/02 07:03:44;;;;;;;2.03;1.60;;;;;;;3.53;100.00;100050.34;5035151;28;20327;-69
2023/11/02 07:06:09;;;;;;;3.33;1.57;;;;;;;3.57;100.00;100032.47;5034876;28;20283;-68
2023/11/02 07:08:35;;;;;;;2.70;1.60;;;;;;;3.55;100.00;100013.34;5034722;28;20280;-66
2023/11/02 07:11:02;;;;;;;2.57;1.80;;;;;;;3.66;100.00;100034.28;5034760;28;20038;-65
2023/11/02 07:13:29;;;;;;;3.97;2.53;;;;;;;3.65;100.00;100027.34;5033421;28;20586;-70
2023/11/02 07:15:55;;;;;;;3.10;2.17;;;;;;;3.65;100.00;100043.13;5034493;28;20759;-64
2023/11/02 07:18:21;;;;;;;2.63;1.83;;;;;;;3.65;100.00;100048.41;5034700;28;20715;-69
2023/11/02 07:20:46;;;;;;;1.70;1.60;;;;;;;3.38;100.00;100013.00;5034786;28;20264;-68
2023/11/02 07:23:17;;;;;;;2.63;1.73;;;;;;;3.42;100.00;100030.19;5034630;28;20053;-66
2023/11/02 07:25:43;;;;;;;2.07;1.87;;;;;;;3.23;100.00;100005.66;5034304;28;20045;-66
2023/11/02 07:28:09;;;;;;;3.73;1.97;;;;;;;3.11;100.00;100002.25;5035441;28;20272;-65
2023/11/02 07:30:35;;;;;;;6.30;3.27;;;;;;;3.38;100.00;100049.88;5034963;28;20071;-68
2023/11/02 07:33:00;;;;;;;2.37;2.17;;;;;;;3.29;100.00;100052.47;5034887;28;20500;-67
2023/11/02 07:35:27;;;;;;;2.77;1.80;;;;;;;3.03;100.00;100031.03;5033682;28;20309;-67
2023/11/02 07:37:53;;;;;;;3.03;2.23;;;;;;;2.95;100.00;100023.81;5035637;28;20045;-66
2023/11/02 07:40:19;;;;;;;3.47;2.07;;;;;;;3.11;100.00;100057.50;5034714;28;20275;-66
2023/11/02 07:42:45;;;;;;;3.33;1.90;;;;;;;3.12;100.00;100038.13;5033129;28;20037;-68
2023/11/02 07:45:11;;;;;;;1.70;1.43;;;;;;;3.25;100.00;100048.44;5034391;28;20292;-67
2023/11/02 07:47:36;;;;;;;4.83;2.77;;;;;;;3.22;100.00;100044.28;5035037;28;20264;-67
2023/11/02 07:50:03;;;;;;;2.40;2.20;;;;;;;3.32;100.00;100053.03;5034766;28;20469;-64
2023/11/02 07:52:30;;;;;;;2.17;1.80;;;;;;;3.27;100.00;100043.88;5035010;28;20049;-67
2023/11/02 07:54:59;;;;;;;3.37;1.63;;;;;;;3.30;100.00;100049.69;5035035;28;20070;-66
2023/11/02 07:57:26;;;;;;;;;;;;;;;3.34;100.00;100068.69;5034372;28;20521;-66
2023/11/02 07:59:51;;;;;;;3.13;1.87;;;;;;;3.15;100.00;100061.53;5032913;28;20011;-66
2023/11/02 08:02:17;;;;;;;1.30;1.20;;;;;;;3.29;100.00;100084.88;5022931;28;20403;-67
2023/11/02 08:04:42;;;;;;;3.57;2.30;;;;;;;3.27;100.00;100078.09;5028442;28;20132;-67
2023/11/02 08:07:08;;;;;;;3.73;1.70;;;;;;;3.25;100.00;100083.47;5027457;28;20033;-71
2023/11/02 08:09:34;;;;;;;2.20;1.53;;;;;;;2.94;100.00;100047.63;5027225;28;20091;-67
2023/11/02 08:12:00;;;;;;;1.77;1.50;;;;;;;3.17;100.00;100085.09;5028957;28;20544;-66
2023/11/02 08:14:26;;;;;;;2.60;1.77;;;;;;;3.13;100.00;100073.16;5033738;28;20411;-67
2023/11/02 08:16:51;;;;;;;2.97;1.60;;;;;;;3.19;100.00;100084.03;5032764;28;20041;-69
2023/11/02 08:19:17;;;;;;;3.60;1.70;;;;;;;3.13;100.00;100073.16;5033948;28;20412;-68
2023/11/02 08:21:43;;;;;;;5.97;1.70;;;;;;;3.22;100.00;100088.19;5033841;28;20140;-70
2023/11/02 08:24:09;;;;;;;2.07;1.70;;;;;;;2.99;100.00;100034.91;5033967;28;20498;-68
2023/11/02 08:26:36;;;;;;;2.47;1.50;;;;;;;3.33;100.00;100081.00;5033584;28;20041;-65
2023/11/02 08:29:02;;;;;;;2.63;1.40;;;;;;;3.44;100.00;100072.19;5034370;28;20361;-67
2023/11/02 08:31:29;;;;;;;3.20;1.60;;;;;;;3.45;100.00;100073.00;5033940;28;20306;-66
2023/11/02 08:33:58;;;;;;;3.37;1.40;;;;;;;3.15;100.00;100024.69;5034825;28;20269;-66
2023/11/02 08:36:24;;;;;;;2.70;1.67;;;;;;;3.60;100.00;100098.00;5033357;28;20268;-66
2023/11/02 08:38:50;;;;;;;4.90;1.30;;;;;;;3.52;100.00;100074.16;5034087;28;20278;-67
2023/11/02 08:41:18;;;;;;;6.07;1.77;;;;;;;3.74;100.00;100095.00;5033397;28;20401;-68
2023/11/02 08:43:46;;;;;;;1.92;1.40;;;;;;;3.80;100.00;100094.47;5032543;28;20037;-66
2023/11/02 08:46:17;;;;;;;1.48;1.38;;;;;;;3.53;100.00;100049.50;5033773;28;20034;-67
2023/11/02 08:48:46;;;;;;;4.60;2.03;;;;;;;3.70;100.00;100083.06;5033390;28;20037;-66
2023/11/02 08:51:17;;;;;;;2.03;1.50;;;;;;;3.79;100.00;100099.88;5033215;28;20260;-66
2023/11/02 08:53:43;;;;;;;2.07;1.40;;;;;;;3.51;100.00;100047.00;5032931;28;20330;-66
2023/11/02 08:56:10;;;;;;;16.70;10.67;;;;;;;4.02;100.00;100104.75;5033293;28;20272;-66
2023/11/02 08:58:42;;;;;;;1.93;1.37;;;;;;;4.10;100.00;100113.78;5033340;28;20448;-68
2023/11/02 09:01:10;;;;;;;2.63;1.43;;;;;;;4.06;100.00;100122.94;5033186;28;20260;-67
2023/11/02 09:03:39;;;;;;;4.78;1.40;;;;;;;3.88;100.00;100106.97;5031744;28;20295;-66
2023/11/02 09:06:08;;;;;;;1.67;1.20;;;;;;;3.83;100.00;100106.53;5032367;28;20076;-67
2023/11/02 09:08:34;;;;;;;;;;;;;;;3.97;100.00;100137.75;5033519;28;20260;-67
2023/11/02 09:11:00;;;;;;;2.43;1.20;;;;;;;3.78;100.00;100135.09;5032050;28;19916;-69
2023/11/02 09:13:26;;;;;;;2.93;1.47;;;;;;;3.60;100.00;100114.66;5033129;28;20271;-66
2023/11/02 09:15:52;;;;;;;3.87;1.50;;;;;;;3.34;100.00;100087.94;5033295;28;20044;-67
2023/11/02 09:18:18;;;;;;;1.20;1.10;;;;;;;3.65;100.00;100128.22;5032749;28;20045;-67
2023/11/02 09:20:43;;;;;;;1.30;1.20;;;;;;;3.55;100.00;100137.09;5036941;28;20757;-69
2023/11/02 09:23:09;;;;;;;1.53;1.23;;;;;;;3.49;100.00;100114.75;5035603;28;20104;-67
2023/11/02 09:25:34;;;;;;;2.13;1.10;;;;;;;3.59;100.00;100151.63;5032924;28;20037;-68
2023/11/02 09:28:00;;;;;;;2.03;1.27;;;;;;;3.36;100.00;100114.97;5034072;28;20128;-69
2023/11/02 09:30:26;;;;;;;2.40;1.30;;;;;;;3.38;100.00;100136.72;5033061;28;20044;-68
2023/11/02 09:32:52;;;;;;;1.80;1.40;;;;;;;3.33;100.00;100133.66;5032842;28;20052;-68
2023/11/02 09:35:18;;;;;;;2.43;1.63;;;;;;;3.40;100.00;100147.94;5015179;28;20275;-70
2023/11/02 09:37:43;;;;;;;2.97;1.40;;;;;;;3.26;100.00;100140.41;5017010;28;20041;-68
2023/11/02 09:40:10;;;;;;;2.03;1.73;;;;;;;3.19;100.00;100120.84;5034643;28;20045;-67
2023/11/02 09:42:36;;;;;;;1.50;1.40;;;;;;;2.87;100.00;100089.38;5031988;28;20030;-67
2023/11/02 09:45:03;;;;;;;4.10;1.87;;;;;;;3.25;100.00;100154.53;5014703;28;20296;-68
2023/11/02 09:47:32;;;;;;;4.43;2.27;;;;;;;3.13;100.00;100146.84;5032459;28;20267;-67
2023/11/02 09:49:58;;;;;;;2.13;1.40;;;;;;;3.13;100.00;100160.00;5031774;28;20367;-68
2023/11/02 09:52:24;;;;;;;8.13;1.70;;;;;;;3.07;100.00;100158.72;5032367;28;20298;-68
2023/11/02 09:54:49;;;;;;;2.90;1.40;;;;;;;2.98;100.00;100138.44;5031176;28;20037;-68
2023/11/02 09:57:17;;;;;;;2.43;1.47;;;;;;;3.01;100.00;100132.94;5032344;28;20479;-68
2023/11/02 09:59:44;;;;;;;3.83;1.83;;;;;;;3.28;100.00;100177.97;5030367;28;20037;-67
2023/11/02 10:02:12;;;;;;;2.30;1.60;;;;;;;3.14;100.00;100159.03;5032760;28;20359;-69
2023/11/02 10:04:37;;;;;;;1.60;1.50;;;;;;;3.13;100.00;100152.94;5032984;28;20295;-69
2023/11/02 10:07:05;;;;;;;3.20;1.47;;;;;;;3.00;100.00;100126.00;5035347;28;20280;-71
2023/11/02 10:09:35;;;;;;;3.43;1.70;;;;;;;3.16;100.00;100147.41;5015643;28;20065;-67
2023/11/02 10:12:00;;;;;;;4.20;1.97;;;;;;;3.28;100.00;100156.91;5033159;28;20272;-66
2023/11/02 10:14:26;;;;;;;2.03;1.43;;;;;;;3.19;100.00;100157.69;5030590;28;20318;-68
2023/11/02 10:17:05;;;;;;;2.20;2.00;;;;;;;3.28;100.00;100180.59;5032319;28;20128;-67
2023/11/02 10:19:32;;;;;;;3.80;1.70;;;;;;;3.25;100.00;100172.13;5034428;28;20033;-66
2023/11/02 10:21:59;;;;;;;2.70;2.00;;;;;;;3.14;100.00;100165.13;5034747;28;20326;-67
2023/11/02 10:24:32;;;;;;;2.80;2.43;;;;;;;3.21;100.00;100184.72;5035247;28;20691;-67
2023/11/02 10:26:59;;;;;;;4.60;2.30;;;;;;;3.15;100.00;100164.16;5029596;28;20265;-66
2023/11/02 10:29:26;;;;;;;3.63;2.60;;;;;;;3.20;100.00;100198.84;5014040;28;20265;-67
2023/11/02 10:31:54;;;;;;;3.57;1.43;;;;;;;3.05;100.00;100192.22;5015530;28;20277;-71
2023/11/02 10:34:28;;;;;;;3.08;2.00;;;;;;;2.78;100.00;100143.56;5012498;28;20269;-67
2023/11/02 10:36:56;;;;;;;1.80;1.57;;;;;;;3.05;100.00;100205.38;5012979;28;20041;-67
2023/11/02 10:39:23;;;;;;;3.30;1.60;;;;;;;2.80;100.00;100175.84;5011711;28;20288;-69
2023/11/02 10:42:04;;;;;;;4.77;2.10;;;;;;;2.89;100.00;100192.66;5011371;28;20334;-66
2023/11/02 10:44:31;;;;;;;3.30;2.33;;;;;;;2.94;100.00;100197.53;5011666;28;20300;-68
2023/11/02 10:47:01;;;;;;;2.20;2.00;;;;;;;3.08;100.00;100202.47;5011952;28;20629;-66
2023/11/02 10:49:29;;;;;;;2.47;1.40;;;;;;;3.09;100.00;100206.78;5011534;28;20336;-67
2023/11/02 10:51:58;;;;;;;2.13;1.40;;;;;;;3.18;100.00;100213.06;5010248;28;20723;-67
2023/11/02 10:54:46;;;;;;;2.07;1.43;;;;;;;3.24;100.00;100205.50;5010051;28;20276;-67
2023/11/02 10:57:17;;;;;;;4.88;1.63;;;;;;;3.26;100.00;100200.09;5010609;28;20361;-66
2023/11/02 10:59:46;;;;;;;1.60;1.30;;;;;;;3.13;100.00;100166.09;5011392;28;20073;-66
2023/11/02 11:02:15;;;;;;;2.03;1.67;;;;;;;2.97;100.00;100139.41;5010288;28;20683;-67
2023/11/02 11:04:41;;;;;;;3.03;1.88;;;;;;;3.38;100.00;100188.53;5011448;28;20664;-68
2023/11/02 11:07:11;;;;;;;4.03;2.97;;;;;;;3.55;100.00;100209.00;5012621;28;20034;-71
2023/11/02 11:09:39;;;;;;;1.77;1.60;;;;;;;3.69;100.00;100202.53;4995019;28;20799;-68
2023/11/02 11:12:05;;;;;;;3.67;1.38;;;;;;;3.57;100.00;100198.34;5012497;28;20268;-68
2023/11/02 11:14:32;;;;;;;2.30;1.50;;;;;;;3.49;100.00;100200.81;5012529;28;20149;-67
2023/11/02 11:17:02;;;;;;;4.97;2.43;;;;;;;3.48;100.00;100209.66;4995162;28;20096;-67
2023/11/02 11:19:33;;;;;;;2.67;2.20;;;;;;;3.37;100.00;100208.75;5010521;28;20300;-68
2023/11/02 11:22:02;;;;;;;2.00;1.80;;;;;;;3.22;100.00;100204.81;5011969;28;20354;-66
2023/11/02 11:24:32;;;;;;;2.20;1.70;;;;;;;3.30;100.00;100207.63;5010675;28;20304;-66
2023/11/02 11:26:59;;;;;;;4.30;2.23;;;;;;;3.36;100.00;100214.97;5012070;28;20026;-67
2023/11/02 11:29:53;;;;;;;3.30;1.60;;;;;;;3.54;100.00;100220.50;5012722;28;20261;-68
2023/11/02 11:32:24;;;;;;;1.90;1.63;;;;;;;3.59;100.00;100234.09;5013587;28;20292;-66
2023/11/02 11:34:53;;;;;;;2.97;1.90;;;;;;;3.64;100.00;100239.81;5017841;28;20356;-64
2023/11/02 11:37:34;;;;;;;2.47;1.65;;;;;;;3.56;100.00;100244.91;5024831;28;20276;-63
2023/11/02 11:40:05;;;;;;;1.90;1.70;;;;;;;3.50;100.00;100245.41;5024181;28;20073;-64
2023/11/02 11:43:00;;;;;;;1.73;1.47;;;;;;;3.55;100.00;100248.50;5021878;28;20411;-68
2023/11/02 11:45:30;;;;;;;5.23;3.07;;;;;;;3.55;100.00;100240.59;5015151;28;20299;-68
2023/11/02 11:47:58;;;;;;;3.73;2.23;;;;;;;3.53;100.00;100245.16;5014634;28;20771;-68